Aviation Digital Data Service (ADDS)

Output produced by METARs form (0854 UTC 03 September 2015)
found at http://www.aviationweather.gov/adds/metars/
 
METAR text: EPBY 030830Z 21004KT 130V270 9999 FEW045 20/09 Q1016
Conditions at: EPBY (BYDGOSZDZ , PL) observed 0830 UTC 03 September 2015
Temperature: 20.0°C (68°F)
Dewpoint: 9.0°C (48°F) [RH = 49%]
Pressure (altimeter): 30.00 inches Hg (1016.0 mb)
Winds: from the SSW (210 degrees) at 5 MPH (4 knots; 2.1 m/s)
Visibility: 6 or more miles (10+ km)
Ceiling: at least 12,000 feet AGL
Clouds: few clouds at 4500 feet AGL
Weather: no significant weather observed at this time

Forecast for: EPBY (BYDGOSZDZ , PL)
Text: TAF EPBY 030530Z 0306/0406 VRB03KT CAVOK
Forecast period: 0600 UTC 03 September 2015 to 0600 UTC 04 September 2015
Forecast type: FROM: standard forecast or significant change
Winds: variable direction winds at 3 MPH (3 knots; 1.6 m/s)
Visibility: 6 or more miles (10+ km)
Clouds: not forecast
Weather: NSW  (no significant weather)